Airfield :







YOU CAN JOIN US ON...

 
LOGIN :

Register | Disclaimer

   EN    FR    IT 

 









Legend :    VFR   Marginal VFR   IFR   Intensive IFR   Very Intensive IFR
Visi :
Ceiling :
>= 8 km
>= 3000ft
5 to 8 km
1000 to 3000 ft
1500m to 5 km
500 to 1000 ft
800 to 1500m
200 to 500 ft
< 800m
< 200 ft
Symbols :   Thunderstorms  Fog  Heavy snow  Heavy precipitations  Wind > 20 kt






- Airport Elevation : 172 ft
- IATA code : YYY


CYYY - Mont Joli

CURRENT METAR :
  • 270500Z 06015G21KT 15SM FEW150 M06/M12 A3018 RMK AC2 SLP226

EXPIRED METARs :
  • 270400Z 07013KT 15SM SCT160 M05/M11 A3019 RMK AC3 SLP229
  • 270300Z 07012G18KT 15SM SCT160 M05/M11 A3020 RMK AC3 SLP232

TAF TAF CYYY
Valid from the 27 at 02:00 until the 27 at 14:00 UTC


270138Z 2702/2714 07010KT P6SM FEW040 BKN200
FM270600 07015KT P6SM SCT015 BKN025
TEMPO 2706/2714 P6SM -SN BKN015
BECMG 2709/2711 08020G30KT RMK NXT FCST BY 270800Z



MET'MAP, your aeronautical weather chart ! - Copyright ORBIFLY December 2007 - Disclaimer

ORBIFLY MET'MAP TEAM :

Programming & Development : Alexandra Zaïnal
Concept & original design : Baudouin d'Aumeries
Assistance for programming : Marc-Olivier Méhu
Technical & hardware support : Manuel Goepfert

Contact : metmap@orbifly.com




SOURCES & CREDITS :

   NOAA